sensor_id;sensor_type;location;lat;lon;timestamp;P1;durP1;ratioP1;P2;durP2;ratioP2
7179;SDS011;3631;42.152;24.756;2023-06-22T00:00:09;16.17;;;12.23;;
7179;SDS011;3631;42.152;24.756;2023-06-22T00:02:37;15.68;;;12.05;;
7179;SDS011;3631;42.152;24.756;2023-06-22T00:05:04;14.55;;;12.57;;
7179;SDS011;3631;42.152;24.756;2023-06-22T00:07:33;14.57;;;11.80;;
7179;SDS011;3631;42.152;24.756;2023-06-22T00:10:00;17.65;;;13.02;;
7179;SDS011;3631;42.152;24.756;2023-06-22T00:12:26;13.35;;;12.10;;
7179;SDS011;3631;42.152;24.756;2023-06-22T00:14:53;12.82;;;11.73;;
7179;SDS011;3631;42.152;24.756;2023-06-22T00:17:20;16.02;;;13.27;;
7179;SDS011;3631;42.152;24.756;2023-06-22T00:19:47;13.82;;;12.60;;
7179;SDS011;3631;42.152;24.756;2023-06-22T00:22:18;19.23;;;12.98;;
7179;SDS011;3631;42.152;24.756;2023-06-22T00:24:55;13.85;;;12.57;;
7179;SDS011;3631;42.152;24.756;2023-06-22T00:27:22;13.88;;;12.73;;
7179;SDS011;3631;42.152;24.756;2023-06-22T00:29:49;16.15;;;13.63;;
7179;SDS011;3631;42.152;24.756;2023-06-22T00:32:16;13.35;;;12.35;;
7179;SDS011;3631;42.152;24.756;2023-06-22T00:34:43;14.13;;;12.90;;
7179;SDS011;3631;42.152;24.756;2023-06-22T00:37:12;14.43;;;13.05;;
7179;SDS011;3631;42.152;24.756;2023-06-22T00:39:38;14.75;;;13.35;;
7179;SDS011;3631;42.152;24.756;2023-06-22T00:42:07;14.50;;;13.13;;
7179;SDS011;3631;42.152;24.756;2023-06-22T00:44:34;13.45;;;12.35;;
7179;SDS011;3631;42.152;24.756;2023-06-22T00:47:01;13.95;;;12.75;;
7179;SDS011;3631;42.152;24.756;2023-06-22T00:49:29;14.70;;;13.30;;
7179;SDS011;3631;42.152;24.756;2023-06-22T00:51:57;14.90;;;13.35;;
7179;SDS011;3631;42.152;24.756;2023-06-22T00:54:24;14.25;;;13.02;;
7179;SDS011;3631;42.152;24.756;2023-06-22T00:56:51;14.63;;;13.32;;
7179;SDS011;3631;42.152;24.756;2023-06-22T00:59:22;15.98;;;13.85;;
7179;SDS011;3631;42.152;24.756;2023-06-22T01:01:51;14.85;;;13.50;;
7179;SDS011;3631;42.152;24.756;2023-06-22T01:04:18;18.27;;;14.73;;
7179;SDS011;3631;42.152;24.756;2023-06-22T01:06:45;15.73;;;14.10;;
7179;SDS011;3631;42.152;24.756;2023-06-22T01:09:22;17.73;;;14.73;;
7179;SDS011;3631;42.152;24.756;2023-06-22T01:11:57;15.77;;;14.18;;
7179;SDS011;3631;42.152;24.756;2023-06-22T01:14:30;16.13;;;14.40;;
7179;SDS011;3631;42.152;24.756;2023-06-22T01:17:03;16.55;;;14.88;;
7179;SDS011;3631;42.152;24.756;2023-06-22T01:19:35;18.80;;;14.50;;
7179;SDS011;3631;42.152;24.756;2023-06-22T01:22:07;15.63;;;14.18;;
7179;SDS011;3631;42.152;24.756;2023-06-22T01:24:41;17.23;;;15.45;;
7179;SDS011;3631;42.152;24.756;2023-06-22T01:27:25;17.33;;;15.52;;
7179;SDS011;3631;42.152;24.756;2023-06-22T01:30:01;17.20;;;15.30;;
7179;SDS011;3631;42.152;24.756;2023-06-22T01:32:31;16.27;;;14.45;;
7179;SDS011;3631;42.152;24.756;2023-06-22T01:35:00;15.93;;;14.48;;
7179;SDS011;3631;42.152;24.756;2023-06-22T01:37:29;15.75;;;14.38;;
7179;SDS011;3631;42.152;24.756;2023-06-22T01:39:58;15.95;;;14.50;;
7179;SDS011;3631;42.152;24.756;2023-06-22T01:42:27;15.48;;;14.07;;
7179;SDS011;3631;42.152;24.756;2023-06-22T01:44:54;15.95;;;14.38;;
7179;SDS011;3631;42.152;24.756;2023-06-22T01:47:24;16.08;;;14.63;;
7179;SDS011;3631;42.152;24.756;2023-06-22T01:49:52;15.60;;;14.15;;
7179;SDS011;3631;42.152;24.756;2023-06-22T01:52:20;15.25;;;13.55;;
7179;SDS011;3631;42.152;24.756;2023-06-22T01:54:47;15.68;;;14.18;;
7179;SDS011;3631;42.152;24.756;2023-06-22T01:57:14;17.30;;;14.40;;
7179;SDS011;3631;42.152;24.756;2023-06-22T01:59:44;16.10;;;14.70;;
7179;SDS011;3631;42.152;24.756;2023-06-22T02:02:15;18.02;;;15.63;;
7179;SDS011;3631;42.152;24.756;2023-06-22T02:04:48;16.02;;;14.40;;
7179;SDS011;3631;42.152;24.756;2023-06-22T02:07:21;16.98;;;14.88;;
7179;SDS011;3631;42.152;24.756;2023-06-22T02:09:51;15.95;;;14.35;;
7179;SDS011;3631;42.152;24.756;2023-06-22T02:12:21;14.77;;;13.48;;
7179;SDS011;3631;42.152;24.756;2023-06-22T02:14:49;14.60;;;13.23;;
7179;SDS011;3631;42.152;24.756;2023-06-22T02:17:18;15.30;;;13.85;;
7179;SDS011;3631;42.152;24.756;2023-06-22T02:19:45;14.27;;;13.00;;
7179;SDS011;3631;42.152;24.756;2023-06-22T02:22:14;15.15;;;13.73;;
7179;SDS011;3631;42.152;24.756;2023-06-22T02:24:41;15.30;;;13.75;;
7179;SDS011;3631;42.152;24.756;2023-06-22T02:27:08;15.23;;;13.88;;
7179;SDS011;3631;42.152;24.756;2023-06-22T02:29:35;16.08;;;14.57;;
7179;SDS011;3631;42.152;24.756;2023-06-22T02:32:03;15.82;;;14.52;;
7179;SDS011;3631;42.152;24.756;2023-06-22T02:34:31;14.85;;;13.55;;
7179;SDS011;3631;42.152;24.756;2023-06-22T02:36:59;15.40;;;14.20;;
7179;SDS011;3631;42.152;24.756;2023-06-22T02:39:29;16.25;;;14.73;;
7179;SDS011;3631;42.152;24.756;2023-06-22T02:41:56;15.90;;;14.40;;
7179;SDS011;3631;42.152;24.756;2023-06-22T02:44:23;15.82;;;14.35;;
7179;SDS011;3631;42.152;24.756;2023-06-22T02:46:49;19.05;;;14.55;;
7179;SDS011;3631;42.152;24.756;2023-06-22T02:49:16;17.80;;;14.23;;
7179;SDS011;3631;42.152;24.756;2023-06-22T02:51:45;16.05;;;14.43;;
7179;SDS011;3631;42.152;24.756;2023-06-22T02:54:13;17.08;;;15.57;;
7179;SDS011;3631;42.152;24.756;2023-06-22T02:56:41;16.80;;;15.43;;
7179;SDS011;3631;42.152;24.756;2023-06-22T02:59:09;16.80;;;15.32;;
7179;SDS011;3631;42.152;24.756;2023-06-22T03:01:36;17.75;;;16.05;;
7179;SDS011;3631;42.152;24.756;2023-06-22T03:04:05;17.23;;;15.57;;
7179;SDS011;3631;42.152;24.756;2023-06-22T03:06:32;17.73;;;15.02;;
7179;SDS011;3631;42.152;24.756;2023-06-22T03:09:00;15.98;;;14.43;;
7179;SDS011;3631;42.152;24.756;2023-06-22T03:11:29;16.80;;;15.23;;
7179;SDS011;3631;42.152;24.756;2023-06-22T03:13:57;16.35;;;14.63;;
7179;SDS011;3631;42.152;24.756;2023-06-22T03:16:25;12.02;;;11.13;;
7179;SDS011;3631;42.152;24.756;2023-06-22T03:18:52;14.20;;;13.00;;
7179;SDS011;3631;42.152;24.756;2023-06-22T03:21:19;21.13;;;12.45;;
7179;SDS011;3631;42.152;24.756;2023-06-22T03:23:48;12.65;;;11.55;;
7179;SDS011;3631;42.152;24.756;2023-06-22T03:26:16;15.20;;;11.85;;
7179;SDS011;3631;42.152;24.756;2023-06-22T03:28:43;12.52;;;11.52;;
7179;SDS011;3631;42.152;24.756;2023-06-22T03:31:11;13.88;;;12.13;;
7179;SDS011;3631;42.152;24.756;2023-06-22T03:33:38;14.40;;;13.07;;
7179;SDS011;3631;42.152;24.756;2023-06-22T03:36:05;12.90;;;11.80;;
7179;SDS011;3631;42.152;24.756;2023-06-22T03:38:32;11.90;;;10.73;;
7179;SDS011;3631;42.152;24.756;2023-06-22T03:40:59;12.20;;;11.20;;
7179;SDS011;3631;42.152;24.756;2023-06-22T03:43:26;12.38;;;11.10;;
7179;SDS011;3631;42.152;24.756;2023-06-22T03:45:53;14.75;;;11.93;;
7179;SDS011;3631;42.152;24.756;2023-06-22T03:48:21;12.27;;;11.05;;
7179;SDS011;3631;42.152;24.756;2023-06-22T03:50:48;14.00;;;12.60;;
7179;SDS011;3631;42.152;24.756;2023-06-22T03:53:15;14.90;;;12.27;;
7179;SDS011;3631;42.152;24.756;2023-06-22T03:55:47;15.18;;;12.27;;
7179;SDS011;3631;42.152;24.756;2023-06-22T03:58:15;14.05;;;12.07;;
7179;SDS011;3631;42.152;24.756;2023-06-22T04:00:44;13.70;;;11.73;;
7179;SDS011;3631;42.152;24.756;2023-06-22T04:03:12;15.43;;;12.10;;
7179;SDS011;3631;42.152;24.756;2023-06-22T04:05:40;14.05;;;12.55;;
7179;SDS011;3631;42.152;24.756;2023-06-22T04:08:08;12.80;;;11.68;;
7179;SDS011;3631;42.152;24.756;2023-06-22T04:10:35;12.65;;;11.60;;
7179;SDS011;3631;42.152;24.756;2023-06-22T04:13:02;12.85;;;11.57;;
7179;SDS011;3631;42.152;24.756;2023-06-22T04:15:29;12.55;;;11.35;;
7179;SDS011;3631;42.152;24.756;2023-06-22T04:17:56;12.60;;;11.38;;
7179;SDS011;3631;42.152;24.756;2023-06-22T04:20:23;20.20;;;11.38;;
7179;SDS011;3631;42.152;24.756;2023-06-22T04:22:53;16.38;;;11.00;;
7179;SDS011;3631;42.152;24.756;2023-06-22T04:25:22;10.70;;;9.80;;
7179;SDS011;3631;42.152;24.756;2023-06-22T04:27:49;11.40;;;10.40;;
7179;SDS011;3631;42.152;24.756;2023-06-22T04:30:16;10.70;;;9.77;;
7179;SDS011;3631;42.152;24.756;2023-06-22T04:32:43;11.40;;;10.40;;
7179;SDS011;3631;42.152;24.756;2023-06-22T04:35:10;10.68;;;9.95;;
7179;SDS011;3631;42.152;24.756;2023-06-22T04:37:37;12.40;;;11.40;;
7179;SDS011;3631;42.152;24.756;2023-06-22T04:40:06;11.73;;;10.77;;
7179;SDS011;3631;42.152;24.756;2023-06-22T04:42:34;11.18;;;10.30;;
7179;SDS011;3631;42.152;24.756;2023-06-22T04:45:02;11.70;;;10.85;;
7179;SDS011;3631;42.152;24.756;2023-06-22T04:47:29;12.18;;;11.13;;
7179;SDS011;3631;42.152;24.756;2023-06-22T04:49:56;11.35;;;10.35;;
7179;SDS011;3631;42.152;24.756;2023-06-22T04:52:23;11.10;;;10.20;;
7179;SDS011;3631;42.152;24.756;2023-06-22T04:54:50;11.88;;;10.65;;
7179;SDS011;3631;42.152;24.756;2023-06-22T04:57:22;10.43;;;9.65;;
7179;SDS011;3631;42.152;24.756;2023-06-22T04:59:55;10.98;;;9.95;;
7179;SDS011;3631;42.152;24.756;2023-06-22T05:02:22;11.52;;;10.30;;
7179;SDS011;3631;42.152;24.756;2023-06-22T05:04:58;10.70;;;9.48;;
7179;SDS011;3631;42.152;24.756;2023-06-22T05:07:24;11.45;;;10.55;;
7179;SDS011;3631;42.152;24.756;2023-06-22T05:09:51;11.00;;;9.98;;
7179;SDS011;3631;42.152;24.756;2023-06-22T05:12:18;11.35;;;10.18;;
7179;SDS011;3631;42.152;24.756;2023-06-22T05:14:47;13.25;;;10.32;;
7179;SDS011;3631;42.152;24.756;2023-06-22T05:17:13;11.75;;;10.82;;
7179;SDS011;3631;42.152;24.756;2023-06-22T05:19:44;11.52;;;10.60;;
7179;SDS011;3631;42.152;24.756;2023-06-22T05:22:14;11.27;;;10.02;;
7179;SDS011;3631;42.152;24.756;2023-06-22T05:24:42;11.13;;;10.20;;
7179;SDS011;3631;42.152;24.756;2023-06-22T05:27:09;10.25;;;9.43;;
7179;SDS011;3631;42.152;24.756;2023-06-22T05:29:36;10.98;;;10.05;;
7179;SDS011;3631;42.152;24.756;2023-06-22T05:32:05;10.75;;;9.75;;
7179;SDS011;3631;42.152;24.756;2023-06-22T05:34:33;12.55;;;10.15;;
7179;SDS011;3631;42.152;24.756;2023-06-22T05:37:00;10.38;;;9.52;;
7179;SDS011;3631;42.152;24.756;2023-06-22T05:39:27;10.10;;;9.40;;
7179;SDS011;3631;42.152;24.756;2023-06-22T05:41:54;15.93;;;9.48;;
7179;SDS011;3631;42.152;24.756;2023-06-22T05:44:21;11.20;;;10.23;;
7179;SDS011;3631;42.152;24.756;2023-06-22T05:46:47;10.40;;;9.60;;
7179;SDS011;3631;42.152;24.756;2023-06-22T05:49:16;10.45;;;9.48;;
7179;SDS011;3631;42.152;24.756;2023-06-22T05:51:43;10.35;;;9.48;;
7179;SDS011;3631;42.152;24.756;2023-06-22T05:54:10;9.57;;;8.93;;
7179;SDS011;3631;42.152;24.756;2023-06-22T05:56:38;11.65;;;10.68;;
7179;SDS011;3631;42.152;24.756;2023-06-22T05:59:05;9.68;;;8.82;;
7179;SDS011;3631;42.152;24.756;2023-06-22T06:01:32;9.70;;;8.98;;
7179;SDS011;3631;42.152;24.756;2023-06-22T06:04:01;9.10;;;8.40;;
7179;SDS011;3631;42.152;24.756;2023-06-22T06:06:30;9.98;;;9.10;;
7179;SDS011;3631;42.152;24.756;2023-06-22T06:08:57;8.88;;;8.27;;
7179;SDS011;3631;42.152;24.756;2023-06-22T06:11:24;8.70;;;8.30;;
7179;SDS011;3631;42.152;24.756;2023-06-22T06:13:51;9.52;;;8.60;;
7179;SDS011;3631;42.152;24.756;2023-06-22T06:16:18;9.20;;;8.55;;
7179;SDS011;3631;42.152;24.756;2023-06-22T06:18:45;9.82;;;8.90;;
7179;SDS011;3631;42.152;24.756;2023-06-22T06:21:13;9.45;;;8.85;;
7179;SDS011;3631;42.152;24.756;2023-06-22T06:23:41;10.63;;;9.70;;
7179;SDS011;3631;42.152;24.756;2023-06-22T06:26:08;9.85;;;9.05;;
7179;SDS011;3631;42.152;24.756;2023-06-22T06:28:35;10.75;;;9.57;;
7179;SDS011;3631;42.152;24.756;2023-06-22T06:31:02;10.50;;;9.23;;
7179;SDS011;3631;42.152;24.756;2023-06-22T06:33:33;10.15;;;9.25;;
7179;SDS011;3631;42.152;24.756;2023-06-22T06:36:00;10.50;;;9.57;;
7179;SDS011;3631;42.152;24.756;2023-06-22T06:38:28;10.93;;;9.82;;
7179;SDS011;3631;42.152;24.756;2023-06-22T06:40:57;11.32;;;10.43;;
7179;SDS011;3631;42.152;24.756;2023-06-22T06:43:24;10.82;;;9.93;;
7179;SDS011;3631;42.152;24.756;2023-06-22T06:45:51;10.10;;;9.30;;
7179;SDS011;3631;42.152;24.756;2023-06-22T06:48:18;11.02;;;10.10;;
7179;SDS011;3631;42.152;24.756;2023-06-22T06:50:45;10.02;;;9.05;;
7179;SDS011;3631;42.152;24.756;2023-06-22T06:53:12;12.55;;;10.65;;
7179;SDS011;3631;42.152;24.756;2023-06-22T06:55:39;10.85;;;9.80;;
7179;SDS011;3631;42.152;24.756;2023-06-22T06:58:07;12.00;;;10.90;;
7179;SDS011;3631;42.152;24.756;2023-06-22T07:00:37;11.65;;;10.63;;
7179;SDS011;3631;42.152;24.756;2023-06-22T07:03:04;10.98;;;9.60;;
7179;SDS011;3631;42.152;24.756;2023-06-22T07:05:32;11.43;;;10.38;;
7179;SDS011;3631;42.152;24.756;2023-06-22T07:07:59;11.25;;;10.38;;
7179;SDS011;3631;42.152;24.756;2023-06-22T07:10:26;10.15;;;9.45;;
7179;SDS011;3631;42.152;24.756;2023-06-22T07:12:53;10.40;;;9.43;;
7179;SDS011;3631;42.152;24.756;2023-06-22T07:15:21;10.60;;;9.80;;
7179;SDS011;3631;42.152;24.756;2023-06-22T07:17:48;12.30;;;11.35;;
7179;SDS011;3631;42.152;24.756;2023-06-22T07:20:15;10.77;;;9.77;;
7179;SDS011;3631;42.152;24.756;2023-06-22T07:22:42;11.50;;;10.35;;
7179;SDS011;3631;42.152;24.756;2023-06-22T07:25:10;12.02;;;11.23;;
7179;SDS011;3631;42.152;24.756;2023-06-22T07:27:39;14.65;;;13.35;;
7179;SDS011;3631;42.152;24.756;2023-06-22T07:30:10;13.35;;;12.00;;
7179;SDS011;3631;42.152;24.756;2023-06-22T07:32:39;10.80;;;9.93;;
7179;SDS011;3631;42.152;24.756;2023-06-22T07:35:07;12.32;;;11.38;;
7179;SDS011;3631;42.152;24.756;2023-06-22T07:37:34;12.52;;;11.32;;
7179;SDS011;3631;42.152;24.756;2023-06-22T07:40:01;11.80;;;10.63;;
7179;SDS011;3631;42.152;24.756;2023-06-22T07:42:31;13.65;;;12.23;;
7179;SDS011;3631;42.152;24.756;2023-06-22T07:44:59;11.30;;;10.32;;
7179;SDS011;3631;42.152;24.756;2023-06-22T07:47:26;11.77;;;10.82;;
7179;SDS011;3631;42.152;24.756;2023-06-22T07:49:55;14.05;;;10.65;;
7179;SDS011;3631;42.152;24.756;2023-06-22T07:52:23;11.98;;;10.98;;
7179;SDS011;3631;42.152;24.756;2023-06-22T07:54:51;11.07;;;10.13;;
7179;SDS011;3631;42.152;24.756;2023-06-22T07:57:18;9.68;;;9.10;;
7179;SDS011;3631;42.152;24.756;2023-06-22T07:59:45;10.43;;;9.55;;
7179;SDS011;3631;42.152;24.756;2023-06-22T08:02:12;15.32;;;9.63;;
7179;SDS011;3631;42.152;24.756;2023-06-22T08:04:39;10.98;;;10.10;;
7179;SDS011;3631;42.152;24.756;2023-06-22T08:07:07;11.57;;;9.57;;
7179;SDS011;3631;42.152;24.756;2023-06-22T08:09:34;13.23;;;11.18;;
7179;SDS011;3631;42.152;24.756;2023-06-22T08:12:02;18.13;;;15.35;;
7179;SDS011;3631;42.152;24.756;2023-06-22T08:14:29;10.15;;;9.25;;
7179;SDS011;3631;42.152;24.756;2023-06-22T08:16:56;14.18;;;12.85;;
7179;SDS011;3631;42.152;24.756;2023-06-22T08:19:23;11.50;;;9.38;;
7179;SDS011;3631;42.152;24.756;2023-06-22T08:21:50;10.75;;;9.95;;
7179;SDS011;3631;42.152;24.756;2023-06-22T08:24:18;12.73;;;9.90;;
7179;SDS011;3631;42.152;24.756;2023-06-22T08:26:45;9.43;;;8.60;;
7179;SDS011;3631;42.152;24.756;2023-06-22T08:29:12;10.18;;;8.20;;
7179;SDS011;3631;42.152;24.756;2023-06-22T08:31:39;11.63;;;8.75;;
7179;SDS011;3631;42.152;24.756;2023-06-22T08:34:06;9.48;;;8.77;;
7179;SDS011;3631;42.152;24.756;2023-06-22T08:36:33;9.23;;;8.27;;
7179;SDS011;3631;42.152;24.756;2023-06-22T08:39:06;8.43;;;7.78;;
7179;SDS011;3631;42.152;24.756;2023-06-22T08:41:34;9.60;;;8.68;;
7179;SDS011;3631;42.152;24.756;2023-06-22T08:44:01;8.98;;;8.45;;
7179;SDS011;3631;42.152;24.756;2023-06-22T08:46:29;8.15;;;7.40;;
7179;SDS011;3631;42.152;24.756;2023-06-22T08:48:58;8.48;;;7.75;;
7179;SDS011;3631;42.152;24.756;2023-06-22T08:51:26;8.68;;;8.18;;
7179;SDS011;3631;42.152;24.756;2023-06-22T08:53:53;12.45;;;9.70;;
7179;SDS011;3631;42.152;24.756;2023-06-22T08:56:20;9.48;;;8.63;;
7179;SDS011;3631;42.152;24.756;2023-06-22T08:58:49;9.70;;;8.98;;
7179;SDS011;3631;42.152;24.756;2023-06-22T09:01:15;9.43;;;8.63;;
7179;SDS011;3631;42.152;24.756;2023-06-22T09:03:42;9.02;;;8.25;;
7179;SDS011;3631;42.152;24.756;2023-06-22T09:06:09;9.15;;;8.30;;
7179;SDS011;3631;42.152;24.756;2023-06-22T09:08:37;8.90;;;8.20;;
7179;SDS011;3631;42.152;24.756;2023-06-22T09:11:04;7.60;;;7.00;;
7179;SDS011;3631;42.152;24.756;2023-06-22T09:13:31;8.95;;;8.20;;
7179;SDS011;3631;42.152;24.756;2023-06-22T09:16:01;9.38;;;8.60;;
7179;SDS011;3631;42.152;24.756;2023-06-22T09:18:28;8.88;;;8.07;;
7179;SDS011;3631;42.152;24.756;2023-06-22T09:20:55;8.82;;;8.18;;
7179;SDS011;3631;42.152;24.756;2023-06-22T09:23:22;8.20;;;7.63;;
7179;SDS011;3631;42.152;24.756;2023-06-22T09:25:49;8.77;;;8.07;;
7179;SDS011;3631;42.152;24.756;2023-06-22T09:28:16;8.25;;;7.60;;
7179;SDS011;3631;42.152;24.756;2023-06-22T09:30:43;8.65;;;8.02;;
7179;SDS011;3631;42.152;24.756;2023-06-22T09:33:11;9.30;;;8.60;;
7179;SDS011;3631;42.152;24.756;2023-06-22T09:35:38;8.05;;;7.65;;
7179;SDS011;3631;42.152;24.756;2023-06-22T09:38:05;11.30;;;8.55;;
7179;SDS011;3631;42.152;24.756;2023-06-22T09:40:32;9.43;;;8.52;;
7179;SDS011;3631;42.152;24.756;2023-06-22T09:43:05;10.10;;;8.40;;
7179;SDS011;3631;42.152;24.756;2023-06-22T09:45:32;9.15;;;7.13;;
7179;SDS011;3631;42.152;24.756;2023-06-22T09:47:58;9.07;;;8.43;;
7179;SDS011;3631;42.152;24.756;2023-06-22T09:50:27;9.40;;;8.80;;
7179;SDS011;3631;42.152;24.756;2023-06-22T09:52:54;8.50;;;7.75;;
7179;SDS011;3631;42.152;24.756;2023-06-22T09:55:21;10.60;;;9.60;;
7179;SDS011;3631;42.152;24.756;2023-06-22T09:57:48;8.98;;;8.48;;
7179;SDS011;3631;42.152;24.756;2023-06-22T10:00:16;9.38;;;8.48;;
7179;SDS011;3631;42.152;24.756;2023-06-22T10:02:44;8.05;;;7.45;;
7179;SDS011;3631;42.152;24.756;2023-06-22T10:05:11;7.82;;;7.20;;
7179;SDS011;3631;42.152;24.756;2023-06-22T10:07:39;8.30;;;7.47;;
7179;SDS011;3631;42.152;24.756;2023-06-22T10:10:08;8.20;;;7.70;;
7179;SDS011;3631;42.152;24.756;2023-06-22T10:12:35;8.23;;;7.63;;
7179;SDS011;3631;42.152;24.756;2023-06-22T10:15:02;7.65;;;7.20;;
7179;SDS011;3631;42.152;24.756;2023-06-22T10:17:30;8.13;;;7.35;;
7179;SDS011;3631;42.152;24.756;2023-06-22T10:19:57;8.80;;;8.00;;
7179;SDS011;3631;42.152;24.756;2023-06-22T10:22:24;8.02;;;7.53;;
7179;SDS011;3631;42.152;24.756;2023-06-22T10:24:52;8.32;;;7.72;;
7179;SDS011;3631;42.152;24.756;2023-06-22T10:27:19;8.77;;;8.13;;
7179;SDS011;3631;42.152;24.756;2023-06-22T10:29:46;8.50;;;8.00;;
7179;SDS011;3631;42.152;24.756;2023-06-22T10:32:12;9.70;;;9.13;;
7179;SDS011;3631;42.152;24.756;2023-06-22T10:34:39;21.70;;;19.08;;
7179;SDS011;3631;42.152;24.756;2023-06-22T10:37:06;8.30;;;7.60;;
7179;SDS011;3631;42.152;24.756;2023-06-22T10:39:33;9.50;;;8.90;;
7179;SDS011;3631;42.152;24.756;2023-06-22T10:42:01;9.55;;;8.68;;
7179;SDS011;3631;42.152;24.756;2023-06-22T10:44:29;9.18;;;8.45;;
7179;SDS011;3631;42.152;24.756;2023-06-22T10:46:55;8.70;;;8.20;;
7179;SDS011;3631;42.152;24.756;2023-06-22T10:49:22;9.38;;;8.77;;
7179;SDS011;3631;42.152;24.756;2023-06-22T10:51:49;9.35;;;8.80;;
7179;SDS011;3631;42.152;24.756;2023-06-22T10:54:16;9.05;;;8.32;;
7179;SDS011;3631;42.152;24.756;2023-06-22T10:56:44;13.80;;;12.75;;
7179;SDS011;3631;42.152;24.756;2023-06-22T10:59:12;9.38;;;8.70;;
7179;SDS011;3631;42.152;24.756;2023-06-22T11:01:39;9.10;;;8.40;;
7179;SDS011;3631;42.152;24.756;2023-06-22T11:04:06;8.63;;;8.02;;
7179;SDS011;3631;42.152;24.756;2023-06-22T11:06:33;7.75;;;7.35;;
7179;SDS011;3631;42.152;24.756;2023-06-22T11:09:00;8.60;;;8.00;;
7179;SDS011;3631;42.152;24.756;2023-06-22T11:11:28;7.35;;;6.85;;
7179;SDS011;3631;42.152;24.756;2023-06-22T11:13:55;7.40;;;7.00;;
7179;SDS011;3631;42.152;24.756;2023-06-22T11:16:24;7.57;;;7.18;;
7179;SDS011;3631;42.152;24.756;2023-06-22T11:18:51;8.38;;;7.70;;
7179;SDS011;3631;42.152;24.756;2023-06-22T11:21:17;8.98;;;8.30;;
7179;SDS011;3631;42.152;24.756;2023-06-22T11:23:44;8.68;;;7.80;;
7179;SDS011;3631;42.152;24.756;2023-06-22T11:26:11;8.40;;;7.78;;
7179;SDS011;3631;42.152;24.756;2023-06-22T11:28:38;8.52;;;8.00;;
7179;SDS011;3631;42.152;24.756;2023-06-22T11:31:05;8.43;;;8.02;;
7179;SDS011;3631;42.152;24.756;2023-06-22T11:33:34;8.38;;;7.72;;
7179;SDS011;3631;42.152;24.756;2023-06-22T11:36:01;8.60;;;8.00;;
7179;SDS011;3631;42.152;24.756;2023-06-22T11:38:27;8.52;;;7.90;;
7179;SDS011;3631;42.152;24.756;2023-06-22T11:40:55;8.38;;;7.82;;
7179;SDS011;3631;42.152;24.756;2023-06-22T11:43:24;10.35;;;9.43;;
7179;SDS011;3631;42.152;24.756;2023-06-22T11:45:51;8.80;;;8.00;;
7179;SDS011;3631;42.152;24.756;2023-06-22T11:48:20;8.80;;;8.20;;
7179;SDS011;3631;42.152;24.756;2023-06-22T11:50:48;9.07;;;8.57;;
7179;SDS011;3631;42.152;24.756;2023-06-22T11:53:15;8.75;;;8.07;;
7179;SDS011;3631;42.152;24.756;2023-06-22T11:55:42;8.68;;;7.97;;
7179;SDS011;3631;42.152;24.756;2023-06-22T11:58:10;8.85;;;8.20;;
7179;SDS011;3631;42.152;24.756;2023-06-22T12:00:37;7.85;;;7.35;;
7179;SDS011;3631;42.152;24.756;2023-06-22T12:03:04;8.00;;;7.28;;
7179;SDS011;3631;42.152;24.756;2023-06-22T12:05:31;9.02;;;8.52;;
7179;SDS011;3631;42.152;24.756;2023-06-22T12:07:59;8.57;;;8.07;;
7179;SDS011;3631;42.152;24.756;2023-06-22T12:10:26;8.63;;;8.20;;
7179;SDS011;3631;42.152;24.756;2023-06-22T12:12:54;9.40;;;8.75;;
7179;SDS011;3631;42.152;24.756;2023-06-22T12:15:22;10.60;;;9.73;;
7179;SDS011;3631;42.152;24.756;2023-06-22T12:17:49;10.27;;;9.38;;
7179;SDS011;3631;42.152;24.756;2023-06-22T12:20:16;11.10;;;10.00;;
7179;SDS011;3631;42.152;24.756;2023-06-22T12:22:44;8.98;;;8.38;;
7179;SDS011;3631;42.152;24.756;2023-06-22T12:25:12;9.05;;;7.95;;
7179;SDS011;3631;42.152;24.756;2023-06-22T12:27:39;9.00;;;8.20;;
7179;SDS011;3631;42.152;24.756;2023-06-22T12:30:06;8.68;;;8.02;;
7179;SDS011;3631;42.152;24.756;2023-06-22T12:32:34;8.75;;;8.02;;
7179;SDS011;3631;42.152;24.756;2023-06-22T12:35:01;9.98;;;8.95;;
7179;SDS011;3631;42.152;24.756;2023-06-22T12:37:29;8.93;;;8.25;;
7179;SDS011;3631;42.152;24.756;2023-06-22T12:39:57;8.30;;;7.63;;
7179;SDS011;3631;42.152;24.756;2023-06-22T12:42:25;9.25;;;8.50;;
7179;SDS011;3631;42.152;24.756;2023-06-22T12:44:53;9.32;;;8.57;;
7179;SDS011;3631;42.152;24.756;2023-06-22T12:47:20;8.73;;;8.18;;
7179;SDS011;3631;42.152;24.756;2023-06-22T12:49:47;10.63;;;8.38;;
7179;SDS011;3631;42.152;24.756;2023-06-22T12:52:14;9.07;;;8.30;;
7179;SDS011;3631;42.152;24.756;2023-06-22T12:54:40;9.38;;;8.45;;
7179;SDS011;3631;42.152;24.756;2023-06-22T12:57:07;9.90;;;8.90;;
7179;SDS011;3631;42.152;24.756;2023-06-22T12:59:36;8.68;;;7.97;;
7179;SDS011;3631;42.152;24.756;2023-06-22T13:02:03;8.18;;;7.78;;
7179;SDS011;3631;42.152;24.756;2023-06-22T13:04:30;11.55;;;10.65;;
7179;SDS011;3631;42.152;24.756;2023-06-22T13:06:57;9.55;;;8.82;;
7179;SDS011;3631;42.152;24.756;2023-06-22T13:09:24;9.38;;;8.65;;
7179;SDS011;3631;42.152;24.756;2023-06-22T13:11:51;9.23;;;8.45;;
7179;SDS011;3631;42.152;24.756;2023-06-22T13:14:18;8.10;;;7.60;;
7179;SDS011;3631;42.152;24.756;2023-06-22T13:16:46;9.10;;;8.38;;
7179;SDS011;3631;42.152;24.756;2023-06-22T13:19:13;17.40;;;8.60;;
7179;SDS011;3631;42.152;24.756;2023-06-22T13:21:40;10.88;;;7.82;;
7179;SDS011;3631;42.152;24.756;2023-06-22T13:24:07;10.15;;;9.45;;
7179;SDS011;3631;42.152;24.756;2023-06-22T13:26:34;9.90;;;7.88;;
7179;SDS011;3631;42.152;24.756;2023-06-22T13:29:01;9.38;;;8.50;;
7179;SDS011;3631;42.152;24.756;2023-06-22T13:31:28;8.88;;;8.38;;
7179;SDS011;3631;42.152;24.756;2023-06-22T13:33:56;10.20;;;9.40;;
7179;SDS011;3631;42.152;24.756;2023-06-22T13:36:23;9.13;;;8.40;;
7179;SDS011;3631;42.152;24.756;2023-06-22T13:38:50;9.15;;;8.50;;
7179;SDS011;3631;42.152;24.756;2023-06-22T13:41:17;9.73;;;8.77;;
7179;SDS011;3631;42.152;24.756;2023-06-22T13:43:44;10.77;;;9.77;;
7179;SDS011;3631;42.152;24.756;2023-06-22T13:46:11;11.38;;;10.27;;
7179;SDS011;3631;42.152;24.756;2023-06-22T13:48:38;10.30;;;9.45;;
7179;SDS011;3631;42.152;24.756;2023-06-22T13:51:06;9.30;;;8.70;;
7179;SDS011;3631;42.152;24.756;2023-06-22T13:53:33;9.10;;;8.43;;
7179;SDS011;3631;42.152;24.756;2023-06-22T13:56:00;12.07;;;9.63;;
7179;SDS011;3631;42.152;24.756;2023-06-22T13:58:26;9.23;;;8.63;;
7179;SDS011;3631;42.152;24.756;2023-06-22T14:00:53;9.55;;;8.60;;
7179;SDS011;3631;42.152;24.756;2023-06-22T14:03:20;10.20;;;9.02;;
7179;SDS011;3631;42.152;24.756;2023-06-22T14:05:47;11.50;;;8.40;;
7179;SDS011;3631;42.152;24.756;2023-06-22T14:08:15;9.48;;;8.88;;
7179;SDS011;3631;42.152;24.756;2023-06-22T14:10:42;9.95;;;9.07;;
7179;SDS011;3631;42.152;24.756;2023-06-22T14:13:09;9.95;;;9.05;;
7179;SDS011;3631;42.152;24.756;2023-06-22T14:15:36;9.27;;;8.63;;
7179;SDS011;3631;42.152;24.756;2023-06-22T14:18:03;9.68;;;9.00;;
7179;SDS011;3631;42.152;24.756;2023-06-22T14:20:30;10.68;;;9.82;;
7179;SDS011;3631;42.152;24.756;2023-06-22T14:22:57;9.88;;;8.98;;
7179;SDS011;3631;42.152;24.756;2023-06-22T14:25:25;9.30;;;8.75;;
7179;SDS011;3631;42.152;24.756;2023-06-22T14:27:52;10.85;;;9.85;;
7179;SDS011;3631;42.152;24.756;2023-06-22T14:30:19;10.57;;;9.65;;
7179;SDS011;3631;42.152;24.756;2023-06-22T14:32:45;10.63;;;9.52;;
7179;SDS011;3631;42.152;24.756;2023-06-22T14:35:12;9.95;;;9.25;;
7179;SDS011;3631;42.152;24.756;2023-06-22T14:37:39;10.07;;;9.27;;
7179;SDS011;3631;42.152;24.756;2023-06-22T14:40:06;9.70;;;9.00;;
7179;SDS011;3631;42.152;24.756;2023-06-22T14:42:35;10.75;;;10.05;;
7179;SDS011;3631;42.152;24.756;2023-06-22T14:45:02;10.05;;;9.38;;
7179;SDS011;3631;42.152;24.756;2023-06-22T14:47:29;10.68;;;9.65;;
7179;SDS011;3631;42.152;24.756;2023-06-22T14:49:56;10.48;;;9.43;;